createdAt,value
2019-01-24T00:00:33.777Z,17.40
2019-01-24T00:03:03.218Z,15.30
2019-01-24T00:05:31.775Z,14.47
2019-01-24T00:07:59.615Z,15.30
2019-01-24T00:10:28.642Z,15.83
2019-01-24T00:12:57.501Z,19.70
2019-01-24T00:15:25.276Z,16.77
2019-01-24T00:17:51.731Z,18.50
2019-01-24T00:20:18.366Z,17.45
2019-01-24T00:22:44.838Z,14.83
2019-01-24T00:25:17.618Z,13.40
2019-01-24T00:27:46.431Z,13.90
2019-01-24T00:30:14.678Z,13.77
2019-01-24T00:32:41.417Z,13.73
2019-01-24T00:35:09.021Z,15.00
2019-01-24T00:37:35.860Z,15.90
2019-01-24T00:40:06.086Z,16.87
2019-01-24T00:42:32.822Z,15.08
2019-01-24T00:45:00.702Z,12.47
2019-01-24T00:47:28.645Z,16.70
2019-01-24T00:49:55.646Z,16.57
2019-01-24T00:52:22.114Z,14.68
2019-01-24T00:54:49.674Z,16.60
2019-01-24T00:57:16.257Z,17.07
2019-01-24T00:59:43.868Z,14.83
2019-01-24T01:02:10.446Z,18.95
2019-01-24T01:04:38.283Z,17.65
2019-01-24T01:07:10.341Z,15.17
2019-01-24T01:09:37.041Z,14.73
2019-01-24T01:12:04.264Z,14.37
2019-01-24T01:14:31.765Z,15.60
2019-01-24T01:16:58.457Z,13.37
2019-01-24T01:19:25.295Z,14.07
2019-01-24T01:21:51.850Z,13.62
2019-01-24T01:24:18.547Z,12.75
2019-01-24T01:26:45.240Z,12.50
2019-01-24T01:29:13.799Z,15.43
2019-01-24T01:31:42.687Z,13.13
2019-01-24T01:34:09.553Z,13.28
2019-01-24T01:36:36.411Z,12.73
2019-01-24T01:39:05.575Z,14.93
2019-01-24T01:41:32.429Z,15.73
2019-01-24T01:43:59.183Z,15.80
2019-01-24T01:46:25.751Z,13.55
2019-01-24T01:48:58.420Z,13.43
2019-01-24T01:51:29.479Z,13.45
2019-01-24T01:53:58.336Z,14.18
2019-01-24T01:56:24.936Z,19.62
2019-01-24T01:58:51.762Z,12.73
2019-01-24T02:01:18.389Z,11.45
2019-01-24T02:03:46.214Z,15.05
2019-01-24T02:06:13.045Z,13.70
2019-01-24T02:08:45.583Z,15.13
2019-01-24T02:11:15.823Z,14.20
2019-01-24T02:13:43.583Z,15.13
2019-01-24T02:16:12.430Z,17.12
2019-01-24T02:18:40.194Z,14.30
2019-01-24T02:21:08.806Z,14.60
2019-01-24T02:23:35.285Z,16.07
2019-01-24T02:26:01.742Z,16.30
2019-01-24T02:28:40.670Z,14.27
2019-01-24T02:31:07.321Z,16.15
2019-01-24T02:33:34.916Z,17.32
2019-01-24T02:36:02.947Z,14.28
2019-01-24T02:38:30.472Z,17.75
2019-01-24T02:41:04.320Z,14.28
2019-01-24T02:43:30.810Z,13.25
2019-01-24T02:45:57.666Z,18.12
2019-01-24T02:48:25.664Z,17.35
2019-01-24T02:50:52.140Z,15.50
2019-01-24T02:53:18.949Z,14.80
2019-01-24T02:55:50.771Z,16.80
2019-01-24T02:58:17.429Z,16.80
2019-01-24T03:00:43.975Z,15.27
2019-01-24T03:03:11.851Z,15.63
2019-01-24T03:05:47.563Z,16.05
2019-01-24T03:08:14.047Z,13.35
2019-01-24T03:10:40.609Z,14.78
2019-01-24T03:13:08.792Z,16.57
2019-01-24T03:15:35.768Z,19.73
2019-01-24T03:18:03.753Z,12.47
2019-01-24T03:20:36.344Z,17.77
2019-01-24T03:23:04.319Z,15.68
2019-01-24T03:25:31.413Z,13.83
2019-01-24T03:27:59.432Z,14.73
2019-01-24T03:30:26.089Z,13.90
2019-01-24T03:32:53.631Z,15.08
2019-01-24T03:35:25.533Z,15.00
2019-01-24T03:37:53.510Z,13.50
2019-01-24T03:40:20.600Z,14.43
2019-01-24T03:42:47.490Z,12.77
2019-01-24T03:45:15.979Z,12.60
2019-01-24T03:47:42.892Z,15.07
2019-01-24T03:50:15.645Z,13.43
2019-01-24T03:52:42.296Z,12.50
2019-01-24T03:55:12.932Z,12.87
2019-01-24T03:57:39.591Z,13.27
2019-01-24T04:00:13.708Z,12.68
2019-01-24T04:02:42.172Z,15.80
2019-01-24T04:05:11.929Z,18.48
2019-01-24T04:07:38.029Z,14.25
2019-01-24T04:10:11.348Z,15.03
2019-01-24T04:12:39.258Z,14.58
2019-01-24T04:15:09.295Z,14.60
2019-01-24T04:17:35.935Z,13.93
2019-01-24T04:20:07.576Z,15.43
2019-01-24T04:22:38.559Z,17.30
2019-01-24T04:25:06.912Z,14.50
2019-01-24T04:27:40.458Z,12.55
2019-01-24T04:30:14.261Z,14.98
2019-01-24T04:32:41.893Z,13.68
2019-01-24T04:35:09.859Z,15.75
2019-01-24T04:37:38.855Z,15.60
2019-01-24T04:40:10.603Z,13.35
2019-01-24T04:42:38.609Z,15.68
2019-01-24T04:45:08.679Z,19.87
2019-01-24T04:47:36.303Z,21.15
2019-01-24T04:50:06.662Z,18.45
2019-01-24T04:52:33.508Z,20.70
2019-01-24T04:55:00.034Z,17.23
2019-01-24T04:57:26.955Z,15.53
2019-01-24T04:59:53.479Z,17.07
2019-01-24T05:02:20.339Z,13.03
2019-01-24T05:04:47.144Z,13.95
2019-01-24T05:07:14.032Z,15.80
2019-01-24T05:09:40.811Z,13.65
2019-01-24T05:12:07.331Z,13.90
2019-01-24T05:14:35.220Z,13.73
2019-01-24T05:17:02.784Z,14.17
2019-01-24T05:19:31.620Z,15.08
2019-01-24T05:21:58.428Z,14.75
2019-01-24T05:24:25.267Z,15.40
2019-01-24T05:26:51.845Z,14.17
2019-01-24T05:29:24.364Z,14.47
2019-01-24T05:31:52.252Z,16.17
2019-01-24T05:34:19.241Z,16.13
2019-01-24T05:36:48.136Z,13.53
2019-01-24T05:39:16.083Z,14.33
2019-01-24T05:41:44.684Z,13.35
2019-01-24T05:44:11.452Z,12.95
2019-01-24T05:46:38.195Z,12.73
2019-01-24T05:49:08.410Z,15.18
2019-01-24T05:51:42.050Z,12.53
2019-01-24T05:54:09.863Z,13.87
2019-01-24T05:56:37.675Z,14.23
2019-01-24T05:59:04.541Z,12.75
2019-01-24T06:01:36.417Z,13.05
2019-01-24T06:04:03.818Z,16.60
2019-01-24T06:06:31.396Z,25.40
2019-01-24T06:09:05.468Z,18.20
2019-01-24T06:11:33.495Z,24.73
2019-01-24T06:14:02.076Z,17.43
2019-01-24T06:16:29.912Z,19.50
2019-01-24T06:18:57.747Z,21.57
2019-01-24T06:21:25.679Z,17.60
2019-01-24T06:23:59.907Z,14.28
2019-01-24T06:26:35.491Z,16.25
2019-01-24T06:29:04.213Z,15.25
2019-01-24T06:31:30.903Z,15.10
2019-01-24T06:33:57.809Z,15.30
2019-01-24T06:36:26.399Z,17.40
2019-01-24T06:38:53.236Z,14.87
2019-01-24T06:41:20.083Z,13.83
2019-01-24T06:43:46.877Z,13.35
2019-01-24T06:46:13.436Z,13.88
2019-01-24T06:48:41.104Z,14.43
2019-01-24T06:51:07.765Z,16.00
2019-01-24T06:53:34.697Z,15.45
2019-01-24T06:56:01.453Z,14.18
2019-01-24T06:58:28.407Z,18.60
2019-01-24T07:00:59.949Z,15.18
2019-01-24T07:03:28.679Z,17.87
2019-01-24T07:05:56.570Z,18.37
2019-01-24T07:08:23.255Z,13.48
2019-01-24T07:10:52.300Z,16.40
2019-01-24T07:13:19.159Z,13.80
2019-01-24T07:15:46.816Z,15.68
2019-01-24T07:18:16.644Z,14.87
2019-01-24T07:20:44.367Z,16.00
2019-01-24T07:23:12.299Z,17.98
2019-01-24T07:25:40.135Z,15.95
2019-01-24T07:28:08.760Z,22.67
2019-01-24T07:30:35.487Z,16.40
2019-01-24T07:33:02.411Z,14.30
2019-01-24T07:35:31.614Z,12.00
2019-01-24T07:37:59.704Z,12.15
2019-01-24T07:40:26.393Z,15.17
2019-01-24T07:42:55.191Z,15.83
2019-01-24T07:45:25.560Z,15.05
2019-01-24T07:47:56.949Z,16.73
2019-01-24T07:50:24.643Z,16.17
2019-01-24T07:52:57.195Z,14.23
2019-01-24T07:55:24.171Z,15.38
2019-01-24T07:57:50.611Z,15.23
2019-01-24T08:00:21.031Z,16.60
2019-01-24T08:02:49.823Z,15.33
2019-01-24T08:05:17.840Z,16.33
2019-01-24T08:07:45.593Z,16.10
2019-01-24T08:10:17.324Z,16.43
2019-01-24T08:12:45.381Z,17.60
2019-01-24T08:15:15.480Z,18.27
2019-01-24T08:17:42.267Z,14.30
2019-01-24T08:20:15.409Z,17.37
2019-01-24T08:22:43.363Z,16.27
2019-01-24T08:25:11.736Z,15.43
2019-01-24T08:27:39.343Z,21.13
2019-01-24T08:30:20.647Z,16.40
2019-01-24T08:32:48.421Z,17.10
2019-01-24T08:35:15.495Z,18.50
2019-01-24T08:37:42.064Z,19.73
2019-01-24T08:40:11.617Z,16.37
2019-01-24T08:42:38.444Z,20.07
2019-01-24T08:45:08.052Z,20.93
2019-01-24T08:47:35.646Z,20.13
2019-01-24T08:50:06.224Z,20.60
2019-01-24T08:52:35.071Z,20.90
2019-01-24T08:55:10.707Z,17.83
2019-01-24T08:57:38.595Z,19.67
2019-01-24T09:00:17.823Z,18.63
2019-01-24T09:02:45.811Z,18.83
2019-01-24T09:05:12.540Z,18.73
2019-01-24T09:07:42.872Z,19.17
2019-01-24T09:10:16.680Z,17.77
2019-01-24T09:12:44.536Z,19.63
2019-01-24T09:15:12.616Z,17.80
2019-01-24T09:17:39.559Z,20.83
2019-01-24T09:20:10.469Z,20.77
2019-01-24T09:22:40.679Z,21.33
2019-01-24T09:25:09.558Z,20.33
2019-01-24T09:27:36.253Z,21.73
2019-01-24T09:30:18.134Z,21.37
2019-01-24T09:32:45.002Z,18.40
2019-01-24T09:35:12.447Z,19.73
2019-01-24T09:37:40.387Z,18.10
2019-01-24T09:40:13.335Z,24.00
2019-01-24T09:42:40.444Z,26.50
2019-01-24T09:45:10.575Z,23.70
2019-01-24T09:47:37.653Z,21.00
2019-01-24T09:50:09.064Z,18.90
2019-01-24T09:52:40.461Z,22.53
2019-01-24T09:55:08.776Z,23.57
2019-01-24T09:57:35.709Z,25.30
2019-01-24T10:00:17.496Z,24.63
2019-01-24T10:02:45.225Z,24.90
2019-01-24T10:05:12.015Z,21.50
2019-01-24T10:07:39.931Z,25.40
2019-01-24T10:10:15.486Z,24.20
2019-01-24T10:12:46.692Z,22.80
2019-01-24T10:15:15.939Z,24.00
2019-01-24T10:17:46.900Z,26.37
2019-01-24T10:20:19.720Z,25.80
2019-01-24T10:22:53.004Z,26.07
2019-01-24T10:25:23.636Z,27.00
2019-01-24T10:27:51.467Z,27.73
2019-01-24T10:30:22.237Z,24.97
2019-01-24T10:32:51.127Z,28.53
2019-01-24T10:35:26.431Z,26.30
2019-01-24T10:37:53.931Z,27.90
2019-01-24T10:40:25.523Z,28.50
2019-01-24T10:42:53.480Z,25.40
2019-01-24T10:45:21.623Z,27.67
2019-01-24T10:47:49.974Z,25.30
2019-01-24T10:50:18.601Z,23.53
2019-01-24T10:52:45.217Z,24.73
2019-01-24T10:55:14.892Z,27.67
2019-01-24T10:57:41.944Z,26.70
2019-01-24T11:00:12.503Z,25.83
2019-01-24T11:02:39.444Z,26.60
2019-01-24T11:05:10.121Z,25.17
2019-01-24T11:07:37.091Z,25.57
2019-01-24T11:10:06.332Z,23.80
2019-01-24T11:12:34.328Z,24.60
2019-01-24T11:15:05.668Z,24.87
2019-01-24T11:17:32.269Z,21.10
2019-01-24T11:19:59.116Z,23.67
2019-01-24T11:22:26.161Z,21.83
2019-01-24T11:24:53.069Z,24.03
2019-01-24T11:27:19.644Z,23.27
2019-01-24T11:29:47.300Z,22.60
2019-01-24T11:32:13.808Z,24.20
2019-01-24T11:34:41.403Z,24.00
2019-01-24T11:37:08.017Z,27.23
2019-01-24T11:39:35.033Z,27.37
2019-01-24T11:42:02.028Z,21.03
2019-01-24T11:44:28.884Z,26.07
2019-01-24T11:46:55.717Z,25.53
2019-01-24T11:49:22.663Z,24.23
2019-01-24T11:51:50.597Z,22.30
2019-01-24T11:54:18.309Z,22.40
2019-01-24T11:56:44.925Z,23.10
2019-01-24T11:59:12.866Z,21.80
2019-01-24T12:01:40.042Z,20.40
2019-01-24T12:04:07.096Z,23.73
2019-01-24T12:06:35.010Z,20.43
2019-01-24T12:09:01.605Z,22.50
2019-01-24T12:11:28.233Z,24.97
2019-01-24T12:13:54.816Z,23.07
2019-01-24T12:16:21.359Z,20.10
2019-01-24T12:19:06.101Z,25.40
2019-01-24T12:21:33.015Z,25.67
2019-01-24T12:24:01.635Z,24.17
2019-01-24T12:26:28.570Z,23.83
2019-01-24T12:28:56.175Z,22.13
2019-01-24T12:31:24.288Z,23.67
2019-01-24T12:33:55.724Z,21.47
2019-01-24T12:36:23.292Z,23.37
2019-01-24T12:38:51.241Z,25.90
2019-01-24T12:41:17.868Z,23.10
2019-01-24T12:43:45.764Z,26.27
2019-01-24T12:46:12.321Z,25.30
2019-01-24T12:48:40.226Z,22.97
2019-01-24T12:51:07.287Z,23.97
2019-01-24T12:53:35.229Z,21.77
2019-01-24T12:56:03.467Z,23.23
2019-01-24T12:58:32.168Z,24.20
2019-01-24T13:01:00.992Z,23.33
2019-01-24T13:03:29.605Z,23.40
2019-01-24T13:05:56.530Z,23.97
2019-01-24T13:08:28.516Z,20.60
2019-01-24T13:10:56.423Z,20.83
2019-01-24T13:13:26.832Z,22.43
2019-01-24T13:15:54.785Z,21.63
2019-01-24T13:18:21.421Z,22.40
2019-01-24T13:20:49.430Z,20.37
2019-01-24T13:23:16.513Z,21.33
2019-01-24T13:25:45.108Z,22.57
2019-01-24T13:28:16.361Z,19.67
2019-01-24T13:30:48.516Z,18.00
2019-01-24T13:33:16.401Z,23.13
2019-01-24T13:35:44.948Z,20.00
2019-01-24T13:38:11.935Z,21.43
2019-01-24T13:40:38.672Z,20.97
2019-01-24T13:43:05.769Z,19.73
2019-01-24T13:45:34.759Z,20.27
2019-01-24T13:48:03.941Z,22.90
2019-01-24T13:50:30.645Z,20.17
2019-01-24T13:52:57.253Z,21.63
2019-01-24T13:55:25.327Z,23.13
2019-01-24T13:57:53.097Z,26.63
2019-01-24T14:00:24.041Z,58.07
2019-01-24T14:02:55.892Z,30.00
2019-01-24T14:05:22.562Z,23.27
2019-01-24T14:07:54.032Z,22.20
2019-01-24T14:10:20.757Z,22.40
2019-01-24T14:12:53.264Z,21.10
2019-01-24T14:15:20.977Z,20.63
2019-01-24T14:17:50.067Z,20.87
2019-01-24T14:20:18.257Z,21.23
2019-01-24T14:22:46.617Z,23.55
2019-01-24T14:25:16.051Z,24.23
2019-01-24T14:27:44.188Z,23.10
2019-01-24T14:30:17.012Z,23.57
2019-01-24T14:32:44.135Z,23.27
2019-01-24T14:35:13.516Z,19.03
2019-01-24T14:37:42.129Z,21.63
2019-01-24T14:40:17.187Z,20.50
2019-01-24T14:42:45.403Z,21.10
2019-01-24T14:45:22.427Z,22.53
2019-01-24T14:47:50.277Z,20.53
2019-01-24T14:50:23.923Z,25.73
2019-01-24T14:52:52.877Z,41.83
2019-01-24T14:55:25.339Z,27.90
2019-01-24T14:57:52.614Z,25.00
2019-01-24T15:00:26.396Z,26.53
2019-01-24T15:02:54.992Z,22.70
2019-01-24T15:05:23.479Z,26.20
2019-01-24T15:07:59.660Z,22.47
2019-01-24T15:10:32.601Z,24.80
2019-01-24T15:13:01.932Z,24.53
2019-01-24T15:16:17.247Z,25.53
2019-01-24T15:18:03.402Z,24.80
2019-01-24T15:20:32.050Z,22.10
2019-01-24T15:23:05.861Z,23.30
2019-01-24T15:25:34.465Z,24.70
2019-01-24T15:28:02.489Z,23.40
2019-01-24T15:30:30.165Z,24.33
2019-01-24T15:32:57.224Z,21.70
2019-01-24T15:35:29.600Z,20.97
2019-01-24T15:38:03.663Z,20.90
2019-01-24T15:40:33.296Z,23.10
2019-01-24T15:43:01.996Z,21.77
2019-01-24T15:45:30.854Z,20.30
2019-01-24T15:48:03.663Z,24.07
2019-01-24T15:51:28.235Z,25.00
2019-01-24T15:53:57.151Z,21.00
2019-01-24T15:56:24.078Z,22.23
2019-01-24T15:58:52.182Z,21.00
2019-01-24T16:01:18.879Z,22.90
2019-01-24T16:03:46.554Z,22.67
2019-01-24T16:06:14.066Z,20.77
2019-01-24T16:08:42.032Z,23.37
2019-01-24T16:11:12.273Z,23.87
2019-01-24T16:13:40.035Z,23.23
2019-01-24T16:16:08.006Z,21.60
2019-01-24T16:18:40.061Z,23.57
2019-01-24T16:21:08.035Z,22.80
2019-01-24T16:23:34.974Z,25.17
2019-01-24T16:26:01.826Z,22.67
2019-01-24T16:28:30.762Z,22.30
2019-01-24T16:30:59.269Z,22.60
2019-01-24T16:33:26.246Z,18.67
2019-01-24T16:35:53.048Z,23.07
2019-01-24T16:38:20.964Z,21.10
2019-01-24T16:40:47.826Z,28.10
2019-01-24T16:43:14.795Z,21.70
2019-01-24T16:45:46.509Z,21.17
2019-01-24T16:48:14.559Z,27.13
2019-01-24T16:50:44.831Z,26.40
2019-01-24T16:53:14.728Z,20.13
2019-01-24T16:55:42.503Z,24.10
2019-01-24T16:58:10.250Z,23.23
2019-01-24T17:00:43.554Z,23.70
2019-01-24T17:03:10.213Z,20.10
2019-01-24T17:05:38.041Z,25.37
2019-01-24T17:08:16.556Z,21.20
2019-01-24T17:10:41.151Z,23.70
2019-01-24T17:13:10.054Z,20.83
2019-01-24T17:15:37.704Z,19.40
2019-01-24T17:18:07.854Z,18.23
2019-01-24T17:20:35.649Z,23.50
2019-01-24T17:23:03.727Z,20.00
2019-01-24T17:25:32.143Z,19.60
2019-01-24T17:28:00.701Z,21.97
2019-01-24T17:30:29.399Z,21.43
2019-01-24T17:32:57.447Z,20.13
2019-01-24T17:35:25.379Z,18.40
2019-01-24T17:37:52.397Z,22.73
2019-01-24T17:40:22.551Z,26.90
2019-01-24T17:42:49.552Z,26.17
2019-01-24T17:45:18.951Z,22.40
2019-01-24T17:47:45.859Z,22.23
2019-01-24T17:50:17.740Z,23.53
2019-01-24T17:52:51.556Z,33.77
2019-01-24T17:55:23.590Z,26.27
2019-01-24T17:57:50.719Z,28.77
2019-01-24T18:00:21.014Z,27.80
2019-01-24T18:02:47.568Z,23.77
2019-01-24T18:05:16.741Z,27.40
2019-01-24T18:07:44.340Z,25.07
2019-01-24T18:10:24.402Z,25.50
2019-01-24T18:12:51.673Z,21.57
2019-01-24T18:15:26.096Z,22.90
2019-01-24T18:17:53.243Z,22.77
2019-01-24T18:20:30.039Z,19.83
2019-01-24T18:22:59.279Z,23.63
2019-01-24T18:25:28.286Z,24.77
2019-01-24T18:27:57.078Z,22.57
2019-01-24T18:30:27.307Z,19.47
2019-01-24T18:32:56.555Z,27.50
2019-01-24T18:35:25.551Z,24.23
2019-01-24T18:37:54.470Z,23.52
2019-01-24T18:40:26.642Z,28.20
2019-01-24T18:42:59.064Z,20.80
2019-01-24T18:45:32.554Z,18.80
2019-01-24T18:47:59.050Z,25.53
2019-01-24T18:50:29.529Z,22.63
2019-01-24T18:52:56.073Z,26.13
2019-01-24T18:55:25.879Z,24.10
2019-01-24T18:57:52.634Z,24.53
2019-01-24T19:00:24.433Z,27.00
2019-01-24T19:02:52.050Z,25.37
2019-01-24T19:05:18.726Z,29.02
2019-01-24T19:07:47.455Z,27.37
2019-01-24T19:10:17.617Z,25.50
2019-01-24T19:12:44.618Z,26.50
2019-01-24T19:15:15.872Z,25.72
2019-01-24T19:17:43.676Z,30.77
2019-01-24T19:20:12.755Z,27.95
2019-01-24T19:22:40.315Z,29.30
2019-01-24T19:25:10.981Z,29.45
2019-01-24T19:27:37.852Z,29.15
2019-01-24T19:30:17.826Z,27.57
2019-01-24T19:32:45.966Z,27.03
2019-01-24T19:35:13.876Z,28.80
2019-01-24T19:37:41.822Z,25.40
2019-01-24T19:40:12.993Z,25.73
2019-01-24T19:42:40.863Z,29.00
2019-01-24T19:45:11.323Z,27.67
2019-01-24T19:47:38.258Z,30.75
2019-01-24T19:50:08.895Z,28.00
2019-01-24T19:52:37.773Z,27.55
2019-01-24T19:55:10.000Z,29.57
2019-01-24T19:57:45.994Z,26.83
2019-01-24T20:00:21.011Z,25.80
2019-01-24T20:02:48.094Z,27.02
2019-01-24T20:05:17.937Z,25.60
2019-01-24T20:07:44.606Z,26.33
2019-01-24T20:10:14.518Z,25.55
2019-01-24T20:12:42.535Z,27.35
2019-01-24T20:15:13.428Z,24.70
2019-01-24T20:17:40.288Z,23.70
2019-01-24T20:20:14.354Z,27.47
2019-01-24T20:22:41.731Z,23.93
2019-01-24T20:25:13.648Z,23.73
2019-01-24T20:27:40.396Z,25.05
2019-01-24T20:30:16.146Z,23.95
2019-01-24T20:32:43.236Z,25.80
2019-01-24T20:35:14.592Z,25.80
2019-01-24T20:37:45.125Z,27.05
2019-01-24T20:40:14.772Z,30.97
2019-01-24T20:42:42.762Z,23.83
2019-01-24T20:45:11.354Z,23.10
2019-01-24T20:47:38.099Z,21.55
2019-01-24T20:50:08.747Z,27.27
2019-01-24T20:52:36.596Z,25.65
2019-01-24T20:55:06.958Z,23.27
2019-01-24T20:57:37.218Z,28.20
2019-01-24T21:00:14.281Z,20.08
2019-01-24T21:02:42.009Z,26.42
2019-01-24T21:05:10.947Z,27.25
2019-01-24T21:07:39.791Z,23.40
2019-01-24T21:10:14.154Z,21.00
2019-01-24T21:12:40.811Z,24.57
2019-01-24T21:15:11.172Z,24.77
2019-01-24T21:17:37.974Z,26.48
2019-01-24T21:20:09.147Z,22.77
2019-01-24T21:22:38.020Z,28.87
2019-01-24T21:25:08.279Z,24.00
2019-01-24T21:27:35.131Z,25.97
2019-01-24T21:30:10.116Z,26.55
2019-01-24T21:32:37.842Z,25.75
2019-01-24T21:35:06.891Z,27.90
2019-01-24T21:37:33.711Z,22.90
2019-01-24T21:40:01.694Z,26.87
2019-01-24T21:42:28.255Z,19.40
2019-01-24T21:44:56.038Z,26.17
2019-01-24T21:47:27.846Z,19.97
2019-01-24T21:49:54.665Z,25.02
2019-01-24T21:52:22.262Z,23.83
2019-01-24T21:54:52.442Z,24.30
2019-01-24T21:57:20.271Z,25.12
2019-01-24T21:59:47.914Z,29.80
2019-01-24T22:02:15.799Z,25.55
2019-01-24T22:04:44.332Z,27.93
2019-01-24T22:07:13.314Z,25.82
2019-01-24T22:09:42.032Z,21.25
2019-01-24T22:12:08.988Z,21.62
2019-01-24T22:14:37.488Z,23.35
2019-01-24T22:17:04.435Z,25.25
2019-01-24T22:19:31.455Z,30.53
2019-01-24T22:21:58.192Z,24.17
2019-01-24T22:24:26.052Z,27.95
2019-01-24T22:26:53.608Z,24.45
2019-01-24T22:29:20.498Z,21.75
2019-01-24T22:31:48.118Z,27.17
2019-01-24T22:34:14.672Z,25.62
2019-01-24T22:36:46.211Z,21.65
2019-01-24T22:39:13.781Z,23.03
2019-01-24T22:41:40.731Z,26.03
2019-01-24T22:44:07.765Z,24.40
2019-01-24T22:46:35.630Z,27.87
2019-01-24T22:49:03.583Z,23.87
2019-01-24T22:51:30.398Z,26.83
2019-01-24T22:53:57.159Z,26.97
2019-01-24T22:56:24.126Z,21.53
2019-01-24T22:58:52.052Z,22.37
2019-01-24T23:01:26.644Z,20.52
2019-01-24T23:03:53.849Z,26.82
2019-01-24T23:06:20.915Z,30.12
2019-01-24T23:08:48.789Z,25.72
2019-01-24T23:11:15.355Z,30.53
2019-01-24T23:13:43.255Z,23.60
2019-01-24T23:16:09.994Z,26.93
2019-01-24T23:18:36.631Z,24.82
2019-01-24T23:21:04.562Z,24.87
2019-01-24T23:23:31.270Z,24.50
2019-01-24T23:25:58.026Z,24.93
2019-01-24T23:28:34.655Z,26.43
2019-01-24T23:31:01.307Z,22.55
2019-01-24T23:33:27.918Z,22.90
2019-01-24T23:35:54.477Z,29.00
2019-01-24T23:38:22.298Z,19.67
2019-01-24T23:40:50.091Z,20.47
2019-01-24T23:43:16.554Z,27.13
2019-01-24T23:45:43.458Z,24.13
2019-01-24T23:48:22.074Z,27.75
2019-01-24T23:50:48.939Z,26.52
2019-01-24T23:53:15.423Z,26.75
2019-01-24T23:55:42.011Z,29.80
2019-01-24T23:58:09.903Z,24.37
